Time;durP1;ratioP1;P1;durP2;ratioP2;P2;SDS_P1;SDS_P2;PMS_P1;PMS_P2;Temp;Humidity;BMP_temperature;BMP_pressure;BME280_temperature;BME280_humidity;BME280_pressure;Samples;Min_cycle;Max_cycle;Signal;HPM_P1;HPM_P2
2023/03/03 00:00:22;;;;;;;14.53;12.97;;;1.20;99.90;;;;;;5013796;28;20177;-62
2023/03/03 00:02:48;;;;;;;14.67;12.97;;;1.20;99.90;;;;;;5012780;28;20692;-62
2023/03/03 00:05:15;;;;;;;14.77;13.23;;;1.10;99.90;;;;;;5012972;28;20215;-62
2023/03/03 00:07:44;;;;;;;19.87;15.53;;;1.10;99.90;;;;;;5013444;28;20312;-62
2023/03/03 00:10:12;;;;;;;29.43;14.27;;;1.00;99.90;;;;;;5013258;28;20606;-62
2023/03/03 00:12:46;;;;;;;15.70;12.70;;;0.90;99.90;;;;;;5013214;28;20528;-62
2023/03/03 00:15:21;;;;;;;17.50;13.07;;;0.90;99.90;;;;;;5013194;28;20199;-62
2023/03/03 00:17:47;;;;;;;18.13;13.23;;;0.80;99.90;;;;;;5013060;28;20665;-62
2023/03/03 00:20:36;;;;;;;17.47;13.77;;;0.80;99.90;;;;;;5012766;28;20179;-62
2023/03/03 00:23:27;;;;;;;18.53;13.30;;;0.70;99.90;;;;;;5013320;28;20584;-62
2023/03/03 00:25:53;;;;;;;12.10;11.07;;;0.70;99.90;;;;;;5012970;28;20204;-62
2023/03/03 00:28:25;;;;;;;13.50;10.93;;;0.60;99.90;;;;;;5013107;28;20194;-62
2023/03/03 00:30:53;;;;;;;15.03;13.40;;;0.60;99.90;;;;;;5012621;28;20275;-62
2023/03/03 00:33:31;;;;;;;19.93;14.27;;;0.60;99.90;;;;;;5013182;28;20176;-62
2023/03/03 00:36:05;;;;;;;21.57;13.43;;;0.70;99.90;;;;;;5013351;28;20176;-62
2023/03/03 00:38:34;;;;;;;14.30;12.83;;;0.60;99.90;;;;;;5013127;28;20267;-62
2023/03/03 00:41:00;;;;;;;15.80;14.33;;;0.60;99.90;;;;;;5012376;28;20516;-63
2023/03/03 00:43:34;;;;;;;16.97;14.53;;;0.60;99.90;;;;;;5013212;28;20188;-62
2023/03/03 00:46:00;;;;;;;18.37;16.47;;;0.50;99.90;;;;;;5012765;28;20190;-62
2023/03/03 00:48:39;;;;;;;18.37;15.83;;;0.50;99.90;;;;;;5013247;28;20179;-62
2023/03/03 00:51:29;;;;;;;21.47;14.73;;;0.50;99.90;;;;;;5012109;28;20175;-62
2023/03/03 00:53:55;;;;;;;15.00;13.17;;;0.40;99.90;;;;;;5012714;28;20189;-62
2023/03/03 00:56:21;;;;;;;21.10;14.80;;;0.40;99.90;;;;;;5012559;28;20187;-62
2023/03/03 00:58:47;;;;;;;15.90;13.53;;;0.40;99.90;;;;;;5012794;28;20184;-62
2023/03/03 01:01:14;;;;;;;16.07;13.67;;;0.40;99.90;;;;;;5011852;28;20275;-62
2023/03/03 01:03:39;;;;;;;14.13;12.10;;;0.30;99.90;;;;;;5012524;28;20243;-62
2023/03/03 01:06:05;;;;;;;13.57;12.37;;;0.30;99.90;;;;;;5012150;28;20200;-62
2023/03/03 01:08:31;;;;;;;25.93;14.43;;;0.30;99.90;;;;;;5012414;28;20705;-62
2023/03/03 01:11:02;;;;;;;14.83;13.27;;;0.30;99.90;;;;;;5012151;28;20164;-62
2023/03/03 01:13:31;;;;;;;18.47;14.57;;;0.30;99.90;;;;;;5011999;28;20247;-62
2023/03/03 01:15:59;;;;;;;14.57;12.57;;;0.30;99.90;;;;;;5012102;28;20538;-63
2023/03/03 01:18:25;;;;;;;17.17;12.50;;;0.20;99.90;;;;;;5012263;28;20227;-62
2023/03/03 01:20:50;;;;;;;15.97;12.80;;;0.20;99.90;;;;;;5011994;28;20172;-62
2023/03/03 01:23:16;;;;;;;14.73;13.37;;;0.20;99.90;;;;;;5011837;28;20672;-62
2023/03/03 01:25:41;;;;;;;20.57;14.30;;;0.10;99.90;;;;;;5012167;28;20188;-62
2023/03/03 01:28:07;;;;;;;22.17;13.93;;;0.10;99.90;;;;;;5011797;28;20233;-62
2023/03/03 01:30:33;;;;;;;17.83;13.27;;;0.10;99.90;;;;;;5011896;28;20295;-62
2023/03/03 01:33:00;;;;;;;16.83;14.00;;;0.10;99.90;;;;;;5011668;28;20252;-62
2023/03/03 01:35:25;;;;;;;15.43;13.17;;;0.10;99.90;;;;;;5012207;28;20631;-62
2023/03/03 01:37:51;;;;;;;17.73;13.33;;;0.10;99.90;;;;;;5011799;28;20216;-62
2023/03/03 01:40:23;;;;;;;25.73;13.63;;;0.10;99.90;;;;;;4992021;28;20208;-62
2023/03/03 01:42:48;;;;;;;21.83;13.57;;;0.10;99.90;;;;;;4992789;28;20168;-62
2023/03/03 01:45:43;;;;;;;16.33;11.90;;;0.10;99.90;;;;;;5011807;28;20223;-62
2023/03/03 01:48:42;;;;;;;20.70;15.87;;;0.00;99.90;;;;;;5010961;28;20199;-62
2023/03/03 01:51:56;;;;;;;14.97;13.27;;;0.00;99.90;;;;;;5001876;28;20195;-62
2023/03/03 01:54:27;;;;;;;20.27;15.03;;;0.00;99.90;;;;;;4951100;29;20205;-62
2023/03/03 01:56:58;;;;;;;15.70;13.60;;;0.10;99.90;;;;;;4951171;29;20190;-62
2023/03/03 01:59:30;;;;;;;15.50;12.33;;;0.10;99.90;;;;;;4983153;28;20227;-62
2023/03/03 02:01:55;;;;;;;18.33;14.57;;;0.20;99.90;;;;;;5011922;28;20175;-63
2023/03/03 02:04:21;;;;;;;18.83;14.83;;;0.30;99.90;;;;;;5048922;22;20225;-65
2023/03/03 02:06:54;;;;;;;16.60;13.87;;;0.40;99.90;;;;;;5051290;28;20228;-64
2023/03/03 02:09:29;;;;;;;21.17;14.40;;;0.40;99.90;;;;;;5050686;28;20201;-65
2023/03/03 02:12:00;;;;;;;25.63;16.10;;;0.50;99.90;;;;;;5051207;28;20166;-65
2023/03/03 02:14:25;;;;;;;21.40;14.37;;;0.70;99.90;;;;;;5051020;28;20237;-65
2023/03/03 02:16:51;;;;;;;23.77;16.07;;;0.70;99.90;;;;;;5051183;28;20791;-65
2023/03/03 02:19:50;;;;;;;19.63;14.53;;;0.80;99.90;;;;;;5050441;28;20725;-64
2023/03/03 02:22:23;;;;;;;25.17;16.53;;;0.90;99.90;;;;;;5045959;28;20183;-64
2023/03/03 02:24:58;;;;;;;18.37;14.87;;;0.90;99.90;;;;;;5051097;28;20217;-64
2023/03/03 02:27:26;;;;;;;24.90;17.03;;;1.00;99.90;;;;;;5053324;28;20382;-64
2023/03/03 02:29:52;;;;;;;16.50;14.70;;;1.00;99.90;;;;;;5054729;28;20173;-64
2023/03/03 02:32:17;;;;;;;23.47;15.57;;;1.00;99.90;;;;;;5054846;28;20175;-64
2023/03/03 02:34:46;;;;;;;25.63;15.60;;;1.10;99.90;;;;;;5055043;28;20240;-64
2023/03/03 02:37:11;;;;;;;22.00;11.63;;;1.10;99.90;;;;;;5054466;28;20634;-63
2023/03/03 02:39:37;;;;;;;21.47;16.63;;;1.00;99.90;;;;;;5054646;28;20222;-63
2023/03/03 02:42:14;;;;;;;20.73;14.63;;;1.00;99.90;;;;;;5054621;28;20265;-64
2023/03/03 02:44:40;;;;;;;26.07;17.17;;;1.00;99.90;;;;;;5054792;28;20182;-63
2023/03/03 02:47:06;;;;;;;27.93;15.73;;;1.00;99.90;;;;;;5054493;28;20275;-64
2023/03/03 02:49:34;;;;;;;29.17;16.13;;;1.00;99.90;;;;;;5054620;28;20317;-64
2023/03/03 02:52:02;;;;;;;20.90;14.43;;;1.00;99.90;;;;;;5054283;28;20171;-64
2023/03/03 02:54:30;;;;;;;16.50;14.50;;;1.00;99.90;;;;;;5054631;28;20190;-64
2023/03/03 02:56:56;;;;;;;18.57;16.50;;;1.10;99.90;;;;;;5054235;28;20633;-64
2023/03/03 02:59:22;;;;;;;22.07;16.30;;;1.10;99.90;;;;;;5052944;28;20236;-65
2023/03/03 03:01:48;;;;;;;27.13;18.27;;;1.10;99.90;;;;;;5053656;28;20544;-65
2023/03/03 03:04:17;;;;;;;18.10;15.47;;;1.10;99.90;;;;;;5054307;28;20317;-65
2023/03/03 03:06:43;;;;;;;23.57;15.50;;;1.10;99.90;;;;;;5054100;28;20695;-65
2023/03/03 03:09:10;;;;;;;23.10;15.57;;;1.20;99.90;;;;;;5053976;28;20159;-64
2023/03/03 03:11:37;;;;;;;20.20;15.97;;;1.20;99.90;;;;;;5052790;28;20185;-65
2023/03/03 03:14:04;;;;;;;20.50;14.00;;;1.20;99.90;;;;;;5054122;28;20556;-65
2023/03/03 03:16:30;;;;;;;24.67;13.73;;;1.20;99.90;;;;;;5054050;28;20183;-65
2023/03/03 03:18:56;;;;;;;21.67;15.83;;;1.20;99.90;;;;;;5054211;28;20167;-65
2023/03/03 03:21:22;;;;;;;17.93;13.53;;;1.20;99.90;;;;;;5053606;28;20253;-65
2023/03/03 03:23:48;;;;;;;26.23;16.57;;;1.20;99.90;;;;;;5054135;28;20178;-65
2023/03/03 03:26:13;;;;;;;28.10;15.37;;;1.20;99.90;;;;;;5053736;28;20254;-65
2023/03/03 03:28:39;;;;;;;20.67;13.60;;;1.30;99.90;;;;;;5054012;28;20167;-65
2023/03/03 03:31:07;;;;;;;25.10;15.10;;;1.30;99.90;;;;;;5053140;28;20186;-65
2023/03/03 03:33:33;;;;;;;23.33;15.23;;;1.40;99.90;;;;;;5053973;28;20170;-65
2023/03/03 03:35:59;;;;;;;21.17;16.83;;;1.40;99.90;;;;;;5053604;28;20270;-65
2023/03/03 03:38:26;;;;;;;31.83;16.23;;;1.40;99.90;;;;;;5053269;28;20258;-65
2023/03/03 03:40:52;;;;;;;35.27;16.07;;;1.30;99.90;;;;;;5053917;28;20518;-65
2023/03/03 03:43:18;;;;;;;30.50;16.17;;;1.30;99.90;;;;;;5053315;28;20174;-64
2023/03/03 03:45:44;;;;;;;29.30;15.80;;;1.30;99.90;;;;;;5053729;28;20750;-65
2023/03/03 03:48:10;;;;;;;32.57;15.63;;;1.20;99.90;;;;;;5053195;28;20197;-65
2023/03/03 03:50:36;;;;;;;21.50;15.87;;;1.20;99.90;;;;;;5053318;28;20178;-67
2023/03/03 03:53:02;;;;;;;28.73;14.77;;;1.20;99.90;;;;;;5053098;28;20652;-64
2023/03/03 03:55:28;;;;;;;14.10;12.23;;;1.30;99.90;;;;;;5053414;28;20202;-65
2023/03/03 03:57:55;;;;;;;16.80;14.60;;;1.30;99.90;;;;;;5053216;28;20667;-65
2023/03/03 04:00:20;;;;;;;20.93;14.70;;;1.30;99.90;;;;;;5053144;28;20175;-66
2023/03/03 04:02:46;;;;;;;20.13;14.57;;;1.30;99.90;;;;;;5053312;28;20175;-65
2023/03/03 04:05:12;;;;;;;23.10;14.53;;;1.30;99.90;;;;;;5052705;28;20221;-65
2023/03/03 04:07:37;;;;;;;15.70;13.77;;;1.30;99.90;;;;;;5053326;28;20589;-65
2023/03/03 04:10:03;;;;;;;19.60;14.07;;;1.30;99.90;;;;;;5052725;28;20206;-65
2023/03/03 04:12:34;;;;;;;18.07;15.33;;;1.40;99.90;;;;;;5053286;28;20217;-65
2023/03/03 04:15:00;;;;;;;21.80;15.27;;;1.40;99.90;;;;;;5052775;28;20195;-65
2023/03/03 04:17:25;;;;;;;16.47;13.93;;;1.40;99.90;;;;;;5053078;28;20197;-65
2023/03/03 04:19:54;;;;;;;26.13;15.17;;;1.40;99.90;;;;;;5051320;28;20237;-65
2023/03/03 04:22:20;;;;;;;17.03;15.17;;;1.40;99.90;;;;;;5053017;28;20183;-65
2023/03/03 04:24:47;;;;;;;20.67;15.10;;;1.40;99.90;;;;;;5052857;28;20210;-64
2023/03/03 04:27:14;;;;;;;23.97;14.90;;;1.40;99.90;;;;;;5052660;28;20264;-65
2023/03/03 04:29:41;;;;;;;22.70;15.63;;;1.40;99.90;;;;;;5052618;28;20190;-64
2023/03/03 04:32:06;;;;;;;22.87;14.93;;;1.40;99.90;;;;;;5052908;28;20166;-64
2023/03/03 04:34:32;;;;;;;25.37;15.63;;;1.50;99.90;;;;;;5052565;28;20256;-64
2023/03/03 04:36:58;;;;;;;24.63;16.63;;;1.50;99.90;;;;;;5052797;28;20578;-64
2023/03/03 04:39:23;;;;;;;19.17;14.20;;;1.50;99.90;;;;;;5052276;28;20266;-64
2023/03/03 04:41:49;;;;;;;25.63;14.53;;;1.50;99.90;;;;;;5052736;28;20557;-64
2023/03/03 04:44:15;;;;;;;21.70;15.33;;;1.50;99.90;;;;;;5052377;28;20407;-62
2023/03/03 04:46:40;;;;;;;32.30;15.77;;;1.60;99.90;;;;;;5053070;28;20285;-63
2023/03/03 04:49:07;;;;;;;26.53;15.70;;;1.60;99.90;;;;;;5051361;28;20294;-64
2023/03/03 04:51:33;;;;;;;25.73;14.53;;;1.50;99.90;;;;;;5052795;28;20232;-63
2023/03/03 04:53:59;;;;;;;26.30;15.90;;;1.50;99.90;;;;;;5052271;28;20194;-64
2023/03/03 04:56:24;;;;;;;29.83;17.97;;;1.50;99.90;;;;;;5052625;28;20698;-62
2023/03/03 04:58:51;;;;;;;32.43;15.60;;;1.50;99.90;;;;;;5052245;28;20233;-65
2023/03/03 05:01:18;;;;;;;26.40;13.73;;;1.50;99.90;;;;;;5051601;28;20224;-64
2023/03/03 05:03:43;;;;;;;22.03;13.33;;;1.50;99.90;;;;;;5052162;28;20175;-64
2023/03/03 05:06:09;;;;;;;26.77;16.67;;;1.50;99.90;;;;;;5051961;28;20206;-64
2023/03/03 05:08:35;;;;;;;36.63;17.13;;;1.50;99.90;;;;;;5052400;28;20212;-64
2023/03/03 05:11:01;;;;;;;26.97;16.77;;;1.60;99.90;;;;;;5051666;28;20591;-64
2023/03/03 05:13:27;;;;;;;28.60;15.57;;;1.60;99.90;;;;;;5052126;28;20163;-64
2023/03/03 05:15:54;;;;;;;19.83;15.23;;;1.60;99.90;;;;;;5051740;28;20676;-64
2023/03/03 05:18:22;;;;;;;20.43;12.37;;;1.60;99.90;;;;;;5054539;28;20179;-65
2023/03/03 05:20:48;;;;;;;27.63;17.33;;;1.50;99.90;;;;;;5052133;28;20179;-64
2023/03/03 05:23:14;;;;;;;24.53;15.43;;;1.60;99.90;;;;;;5052550;28;20721;-65
2023/03/03 05:25:41;;;;;;;28.47;16.30;;;1.60;99.90;;;;;;5051873;28;20230;-64
2023/03/03 05:28:07;;;;;;;25.03;16.10;;;1.50;99.90;;;;;;5051861;28;20170;-66
2023/03/03 05:30:33;;;;;;;28.03;14.57;;;1.60;99.90;;;;;;5051386;28;20202;-65
2023/03/03 05:32:59;;;;;;;26.30;17.03;;;1.60;99.90;;;;;;5052286;28;20203;-65
2023/03/03 05:35:25;;;;;;;21.57;15.97;;;1.60;99.90;;;;;;5051223;28;20203;-64
2023/03/03 05:37:51;;;;;;;28.23;14.80;;;1.70;99.90;;;;;;5051751;28;20602;-65
2023/03/03 05:40:17;;;;;;;26.43;15.73;;;1.70;99.90;;;;;;5050673;28;20171;-65
2023/03/03 05:42:44;;;;;;;23.77;13.87;;;1.70;99.90;;;;;;5046080;28;20186;-64
2023/03/03 05:45:09;;;;;;;20.17;13.13;;;1.70;99.90;;;;;;5049874;28;20226;-64
2023/03/03 05:47:35;;;;;;;24.70;14.90;;;1.70;99.90;;;;;;5051928;28;20237;-64
2023/03/03 05:50:01;;;;;;;25.13;15.53;;;1.70;99.90;;;;;;5051201;28;20178;-64
2023/03/03 05:52:27;;;;;;;22.63;13.23;;;1.70;99.90;;;;;;5052049;28;20179;-64
2023/03/03 05:54:52;;;;;;;27.83;15.27;;;1.80;99.90;;;;;;5052203;28;20190;-64
2023/03/03 05:57:18;;;;;;;21.23;14.37;;;1.80;99.90;;;;;;5051865;28;20175;-64
2023/03/03 05:59:43;;;;;;;28.30;16.43;;;1.80;99.90;;;;;;5051106;28;20183;-65
2023/03/03 06:02:09;;;;;;;28.73;16.03;;;1.90;99.90;;;;;;5051509;28;20258;-65
2023/03/03 06:04:35;;;;;;;33.27;16.40;;;2.00;99.90;;;;;;5051098;28;20214;-64
2023/03/03 06:07:01;;;;;;;24.40;16.07;;;2.00;99.90;;;;;;5051020;28;20608;-65
2023/03/03 06:09:26;;;;;;;20.47;14.33;;;2.00;99.90;;;;;;5050893;28;20469;-65
2023/03/03 06:11:52;;;;;;;27.57;16.10;;;2.00;99.90;;;;;;5051310;28;20261;-64
2023/03/03 06:14:19;;;;;;;30.00;15.47;;;1.90;99.90;;;;;;5051184;28;20549;-65
2023/03/03 06:16:46;;;;;;;27.60;16.53;;;1.90;99.90;;;;;;5051518;28;20674;-65
2023/03/03 06:19:12;;;;;;;22.87;14.17;;;1.80;99.90;;;;;;5050949;28;20643;-65
2023/03/03 06:21:38;;;;;;;17.53;14.63;;;1.80;99.90;;;;;;5049780;28;20200;-64
2023/03/03 06:24:04;;;;;;;24.33;15.83;;;1.80;99.90;;;;;;5050722;28;20565;-65
2023/03/03 06:26:31;;;;;;;28.53;14.83;;;1.80;99.90;;;;;;5051253;28;20229;-64
2023/03/03 06:28:57;;;;;;;30.00;15.73;;;1.80;99.90;;;;;;5050846;28;20178;-65
2023/03/03 06:31:22;;;;;;;29.07;15.33;;;1.90;99.90;;;;;;5050666;28;20167;-65
2023/03/03 06:33:48;;;;;;;20.13;14.03;;;1.90;99.90;;;;;;5050899;28;20175;-65
2023/03/03 06:36:13;;;;;;;25.30;13.80;;;1.90;99.90;;;;;;5051058;28;20193;-64
2023/03/03 06:38:39;;;;;;;19.47;14.97;;;1.80;99.90;;;;;;5050863;28;20543;-65
2023/03/03 06:41:07;;;;;;;21.87;14.73;;;1.80;99.90;;;;;;5050888;28;20175;-64
2023/03/03 06:43:34;;;;;;;27.87;15.57;;;1.90;99.90;;;;;;5051132;28;20421;-64
2023/03/03 06:45:59;;;;;;;27.73;16.53;;;1.90;99.90;;;;;;5050898;28;20221;-64
2023/03/03 06:48:25;;;;;;;28.33;16.20;;;1.90;99.90;;;;;;5050874;28;20171;-64
2023/03/03 06:50:50;;;;;;;20.27;13.87;;;1.90;99.90;;;;;;5050473;28;20221;-65
2023/03/03 06:53:17;;;;;;;21.20;13.73;;;1.90;99.90;;;;;;5050674;28;20209;-64
2023/03/03 06:55:44;;;;;;;19.43;14.83;;;1.90;99.90;;;;;;5050669;28;20199;-64
2023/03/03 06:58:17;;;;;;;23.10;15.73;;;1.90;99.90;;;;;;5050907;28;20175;-64
2023/03/03 07:00:49;;;;;;;31.43;15.73;;;1.90;99.90;;;;;;5050538;28;20179;-64
2023/03/03 07:03:17;;;;;;;23.67;14.57;;;1.90;99.90;;;;;;5051018;28;20217;-65
2023/03/03 07:05:43;;;;;;;23.17;16.07;;;1.90;99.90;;;;;;5050340;28;20207;-64
2023/03/03 07:08:18;;;;;;;28.13;16.70;;;1.90;99.90;;;;;;5049113;28;20260;-64
2023/03/03 07:10:45;;;;;;;21.43;14.80;;;1.90;99.90;;;;;;5043351;28;20179;-64
2023/03/03 07:13:16;;;;;;;26.10;14.20;;;1.90;99.90;;;;;;5032432;28;20645;-64
2023/03/03 07:15:42;;;;;;;21.07;14.43;;;1.90;99.90;;;;;;5048016;28;20195;-65
2023/03/03 07:18:38;;;;;;;26.87;16.07;;;1.90;99.90;;;;;;5054256;28;20213;-64
2023/03/03 07:21:16;;;;;;;34.70;16.67;;;1.90;99.90;;;;;;5034176;28;20274;-64
2023/03/03 07:23:44;;;;;;;24.77;14.63;;;2.00;99.90;;;;;;5052760;28;20174;-64
2023/03/03 07:26:22;;;;;;;23.20;15.20;;;2.00;99.90;;;;;;5053894;28;20535;-64
2023/03/03 07:29:20;;;;;;;20.10;15.47;;;2.10;99.90;;;;;;5054336;28;20611;-64
2023/03/03 07:31:48;;;;;;;25.43;15.23;;;2.10;99.90;;;;;;5053727;28;20209;-63
2023/03/03 07:34:23;;;;;;;29.07;16.43;;;2.20;99.90;;;;;;5054133;28;20195;-64
2023/03/03 07:36:58;;;;;;;27.03;16.63;;;2.20;99.90;;;;;;5053778;28;20182;-65
2023/03/03 07:39:39;;;;;;;30.67;15.57;;;2.20;99.90;;;;;;5053189;28;20257;-64
2023/03/03 07:42:20;;;;;;;30.70;15.67;;;2.20;99.90;;;;;;5053786;28;20171;-65
2023/03/03 07:44:47;;;;;;;24.10;16.93;;;2.20;99.90;;;;;;5053517;28;20204;-64
2023/03/03 07:47:33;;;;;;;40.30;16.70;;;2.20;99.90;;;;;;5053046;28;20202;-65
2023/03/03 07:50:06;;;;;;;22.97;14.23;;;2.20;99.90;;;;;;5053378;28;20170;-64
2023/03/03 07:52:34;;;;;;;39.23;17.70;;;2.30;99.90;;;;;;5053540;28;20167;-65
2023/03/03 07:55:17;;;;;;;29.20;17.43;;;2.30;99.90;;;;;;5053067;28;20201;-64
2023/03/03 07:57:43;;;;;;;30.27;16.70;;;2.40;99.90;;;;;;5053833;28;20600;-65
2023/03/03 08:00:29;;;;;;;26.10;15.30;;;2.40;99.90;;;;;;5052752;28;20171;-64
2023/03/03 08:03:11;;;;;;;31.30;16.20;;;2.40;99.90;;;;;;5053430;28;20175;-64
2023/03/03 08:05:41;;;;;;;32.23;15.47;;;2.40;99.90;;;;;;5053380;28;20233;-65
2023/03/03 08:08:28;;;;;;;18.20;14.57;;;2.40;99.90;;;;;;5053242;28;20562;-65
2023/03/03 08:10:55;;;;;;;25.60;13.70;;;2.40;99.90;;;;;;5052789;28;20237;-65
2023/03/03 08:13:36;;;;;;;26.83;14.60;;;2.50;99.90;;;;;;5053040;28;20175;-65
2023/03/03 08:16:08;;;;;;;22.07;14.13;;;2.50;99.90;;;;;;5052818;28;20285;-65
2023/03/03 08:18:35;;;;;;;19.10;12.47;;;2.60;99.90;;;;;;5053090;28;20179;-65
2023/03/03 08:21:24;;;;;;;23.23;13.63;;;2.70;99.90;;;;;;5052539;28;20179;-65
2023/03/03 08:23:52;;;;;;;17.80;13.70;;;2.70;99.90;;;;;;5052307;28;20182;-66
2023/03/03 08:26:18;;;;;;;24.27;14.60;;;2.70;99.90;;;;;;5052180;28;20198;-65
2023/03/03 08:28:45;;;;;;;18.93;13.80;;;2.70;99.90;;;;;;5052953;28;20179;-65
2023/03/03 08:31:11;;;;;;;24.73;15.33;;;2.70;99.90;;;;;;5052143;28;20190;-65
2023/03/03 08:33:37;;;;;;;18.90;13.13;;;2.70;99.90;;;;;;5051400;28;20175;-66
2023/03/03 08:36:04;;;;;;;16.97;13.43;;;2.90;99.90;;;;;;5052109;28;20554;-66
2023/03/03 08:38:30;;;;;;;22.23;14.17;;;2.90;99.90;;;;;;5052674;28;20213;-65
2023/03/03 08:40:55;;;;;;;22.40;13.53;;;3.00;99.90;;;;;;5051885;28;20207;-66
2023/03/03 08:43:21;;;;;;;16.13;13.27;;;3.00;99.90;;;;;;5052622;28;20190;-66
2023/03/03 08:45:52;;;;;;;20.43;14.07;;;3.00;99.90;;;;;;5052233;28;20650;-66
2023/03/03 08:48:19;;;;;;;24.67;13.17;;;3.00;99.90;;;;;;5052435;28;20171;-66
2023/03/03 08:50:45;;;;;;;23.17;14.10;;;3.00;99.90;;;;;;5052061;28;20182;-66
2023/03/03 08:53:12;;;;;;;33.97;17.17;;;3.00;99.90;;;;;;5050987;28;20271;-65
2023/03/03 08:55:38;;;;;;;25.17;14.70;;;3.10;99.90;;;;;;5051975;28;20748;-66
2023/03/03 08:58:04;;;;;;;23.83;14.80;;;3.20;99.90;;;;;;5052153;28;20183;-66
2023/03/03 09:00:30;;;;;;;25.43;17.53;;;3.20;99.90;;;;;;5051839;28;20313;-66
2023/03/03 09:02:55;;;;;;;25.00;15.43;;;3.20;99.90;;;;;;5051604;28;20182;-66
2023/03/03 09:05:23;;;;;;;26.77;15.43;;;3.30;99.90;;;;;;5050978;28;20289;-64
2023/03/03 09:07:52;;;;;;;30.10;15.73;;;3.30;99.90;;;;;;5052234;28;20340;-64
2023/03/03 09:10:26;;;;;;;23.47;15.73;;;3.10;99.90;;;;;;5051739;28;20175;-66
2023/03/03 09:12:52;;;;;;;20.83;15.83;;;3.10;99.90;;;;;;5031670;28;20209;-65
2023/03/03 09:15:34;;;;;;;23.80;18.30;;;3.10;99.90;;;;;;5048855;28;20234;-65
2023/03/03 09:18:09;;;;;;;35.90;21.17;;;3.30;99.90;;;;;;5051911;28;20189;-66
2023/03/03 09:20:38;;;;;;;22.33;15.87;;;3.50;99.90;;;;;;5051227;28;20617;-66
2023/03/03 09:23:22;;;;;;;23.53;16.20;;;3.60;99.90;;;;;;5051675;28;20175;-65
2023/03/03 09:25:49;;;;;;;31.00;15.37;;;3.60;99.90;;;;;;5051518;28;20221;-66
2023/03/03 09:28:26;;;;;;;30.30;15.93;;;3.40;99.90;;;;;;5051667;28;20175;-65
2023/03/03 09:30:53;;;;;;;22.27;13.70;;;3.30;99.90;;;;;;5053379;28;20207;-66
2023/03/03 09:33:30;;;;;;;26.97;14.17;;;3.30;99.90;;;;;;5051503;28;20174;-64
2023/03/03 09:36:23;;;;;;;17.90;13.40;;;3.30;99.90;;;;;;5051668;28;20297;-66
2023/03/03 09:38:49;;;;;;;17.23;13.73;;;3.30;99.90;;;;;;5051455;28;20640;-66
2023/03/03 09:41:17;;;;;;;25.13;15.03;;;3.40;99.90;;;;;;5050983;28;20171;-65
2023/03/03 09:43:54;;;;;;;20.27;13.53;;;3.50;99.90;;;;;;5049820;28;20186;-66
2023/03/03 09:46:23;;;;;;;22.57;14.43;;;3.60;99.90;;;;;;5031475;28;20295;-66
2023/03/03 09:49:15;;;;;;;24.40;14.43;;;3.60;99.90;;;;;;5032508;28;20566;-66
2023/03/03 09:52:05;;;;;;;23.97;15.13;;;3.70;99.90;;;;;;5020136;28;20186;-66
2023/03/03 09:54:45;;;;;;;16.00;14.23;;;3.60;99.90;;;;;;5050943;28;20212;-65
2023/03/03 09:57:19;;;;;;;25.07;15.20;;;3.60;99.90;;;;;;5048774;28;20178;-65
2023/03/03 09:59:54;;;;;;;24.90;15.30;;;3.50;99.90;;;;;;5050595;28;20183;-66
2023/03/03 10:02:19;;;;;;;25.40;15.90;;;3.60;99.90;;;;;;5050859;28;20182;-65
2023/03/03 10:05:02;;;;;;;30.23;14.27;;;3.60;99.90;;;;;;5051024;28;20268;-65
2023/03/03 10:07:34;;;;;;;23.00;15.77;;;3.60;99.90;;;;;;5051133;28;20305;-65
2023/03/03 10:10:24;;;;;;;23.17;17.03;;;3.50;99.90;;;;;;5049690;28;20175;-65
2023/03/03 10:13:12;;;;;;;22.80;17.67;;;3.50;99.90;;;;;;5050975;28;20652;-65
2023/03/03 10:16:33;;;;;;;23.27;16.87;;;3.50;99.90;;;;;;5049577;28;20660;-65
2023/03/03 10:19:20;;;;;;;20.37;16.47;;;3.50;99.90;;;;;;4982191;28;20193;-65
2023/03/03 10:22:19;;;;;;;20.83;14.70;;;3.60;99.90;;;;;;5031988;28;20200;-65
2023/03/03 10:25:07;;;;;;;22.20;15.47;;;3.50;99.90;;;;;;5051047;28;20206;-65
2023/03/03 10:27:51;;;;;;;18.13;13.40;;;3.50;99.90;;;;;;5050966;28;20214;-65
2023/03/03 10:30:27;;;;;;;28.53;17.43;;;3.50;99.90;;;;;;5050597;28;20198;-65
2023/03/03 10:33:25;;;;;;;27.77;15.63;;;3.50;99.90;;;;;;5051207;28;20229;-65
2023/03/03 10:36:09;;;;;;;29.33;15.37;;;3.40;99.90;;;;;;5050187;28;20202;-65
2023/03/03 10:39:02;;;;;;;26.27;14.33;;;3.50;99.90;;;;;;5050987;28;20178;-65
2023/03/03 10:41:30;;;;;;;17.97;13.30;;;3.60;99.90;;;;;;4995875;28;20200;-65
2023/03/03 10:44:30;;;;;;;30.30;16.40;;;3.60;99.90;;;;;;5031933;28;20202;-66
2023/03/03 10:47:10;;;;;;;21.90;14.77;;;3.70;99.90;;;;;;5050652;28;20297;-66
2023/03/03 10:49:39;;;;;;;22.83;14.33;;;3.70;99.90;;;;;;5046410;28;20183;-65
2023/03/03 10:52:07;;;;;;;27.70;14.73;;;4.00;99.90;;;;;;5034809;28;20176;-65
2023/03/03 10:54:42;;;;;;;23.63;14.67;;;4.10;99.90;;;;;;5039810;28;20199;-65
2023/03/03 10:57:34;;;;;;;30.33;15.77;;;4.10;99.90;;;;;;5054677;28;20212;-65
2023/03/03 11:00:24;;;;;;;23.87;13.50;;;4.20;99.90;;;;;;5054003;28;20171;-65
2023/03/03 11:03:12;;;;;;;24.93;14.00;;;4.30;99.90;;;;;;5054873;28;20664;-65
2023/03/03 11:06:00;;;;;;;21.73;14.33;;;4.30;99.90;;;;;;5054011;28;20642;-65
2023/03/03 11:08:34;;;;;;;16.60;12.83;;;4.40;99.90;;;;;;5054486;28;20183;-65
2023/03/03 11:11:19;;;;;;;21.07;13.10;;;4.50;99.90;;;;;;5053956;28;20249;-64
2023/03/03 11:13:47;;;;;;;19.47;12.07;;;4.40;99.90;;;;;;5054829;28;20178;-65
2023/03/03 11:16:19;;;;;;;23.50;13.77;;;4.20;99.90;;;;;;5054131;28;20660;-64
2023/03/03 11:19:08;;;;;;;22.40;12.80;;;4.20;99.90;;;;;;5054610;28;20174;-65
2023/03/03 11:21:48;;;;;;;26.27;15.30;;;4.20;99.90;;;;;;5046550;28;20203;-65
2023/03/03 11:24:25;;;;;;;22.93;13.10;;;4.10;99.90;;;;;;5034614;28;20195;-65
2023/03/03 11:27:05;;;;;;;31.37;15.37;;;4.20;99.90;;;;;;5047852;28;20289;-65
2023/03/03 11:29:58;;;;;;;26.93;15.57;;;4.30;99.90;;;;;;5053966;28;20232;-65
2023/03/03 11:32:42;;;;;;;31.00;15.43;;;4.40;99.90;;;;;;5053726;28;20201;-65
2023/03/03 11:35:33;;;;;;;29.03;12.60;;;4.40;99.90;;;;;;5052935;28;20195;-65
2023/03/03 11:38:08;;;;;;;30.77;13.90;;;4.40;99.90;;;;;;5034034;28;20179;-65
2023/03/03 11:40:54;;;;;;;20.23;14.33;;;4.40;99.90;;;;;;5035213;28;20258;-65
2023/03/03 11:43:28;;;;;;;20.57;12.27;;;4.60;99.90;;;;;;5053764;28;20186;-64
2023/03/03 11:46:02;;;;;;;25.77;14.37;;;4.60;99.90;;;;;;5053328;28;20198;-65
2023/03/03 11:48:44;;;;;;;26.00;14.20;;;4.50;99.90;;;;;;5053722;28;20193;-65
2023/03/03 11:51:29;;;;;;;25.03;14.00;;;4.70;99.90;;;;;;5053212;28;20167;-65
2023/03/03 11:54:21;;;;;;;24.57;14.70;;;4.80;99.90;;;;;;5053784;28;20183;-65
2023/03/03 11:56:47;;;;;;;17.20;10.90;;;4.80;99.90;;;;;;5042930;28;20666;-65
2023/03/03 11:59:41;;;;;;;26.93;13.33;;;4.80;99.90;;;;;;5052892;28;20476;-65
2023/03/03 12:02:31;;;;;;;19.10;12.10;;;5.00;99.90;;;;;;5053014;28;20273;-65
2023/03/03 12:05:10;;;;;;;25.33;12.57;;;5.00;99.90;;;;;;5053064;28;20203;-65
2023/03/03 12:07:51;;;;;;;20.23;12.77;;;5.10;99.90;;;;;;5052928;28;20229;-65
2023/03/03 12:10:26;;;;;;;23.27;13.37;;;5.20;99.90;;;;;;5053040;28;20282;-65
2023/03/03 12:13:20;;;;;;;24.07;13.27;;;5.20;99.90;;;;;;5053269;28;20185;-65
2023/03/03 12:16:07;;;;;;;21.77;13.33;;;5.30;99.90;;;;;;5053073;28;20191;-65
2023/03/03 12:18:59;;;;;;;22.07;13.70;;;5.40;99.90;;;;;;5052556;28;20178;-65
2023/03/03 12:22:00;;;;;;;27.80;14.53;;;5.60;99.90;;;;;;5052391;28;20179;-64
2023/03/03 12:24:28;;;;;;;26.70;12.53;;;5.70;99.90;;;;;;5052408;28;20578;-64
2023/03/03 12:27:26;;;;;;;30.43;14.07;;;5.60;99.90;;;;;;5052767;28;20648;-64
2023/03/03 12:30:09;;;;;;;23.93;14.67;;;5.50;99.90;;;;;;5052378;28;20183;-64
2023/03/03 12:32:47;;;;;;;27.20;13.87;;;5.40;99.90;;;;;;5052702;28;20632;-64
2023/03/03 12:35:34;;;;;;;25.27;13.73;;;5.40;99.90;;;;;;5052621;28;20597;-64
2023/03/03 12:38:20;;;;;;;24.17;14.73;;;5.50;99.90;;;;;;5052506;28;20554;-64
2023/03/03 12:41:14;;;;;;;28.63;15.40;;;5.40;99.90;;;;;;5052481;28;20535;-65
2023/03/03 12:44:05;;;;;;;28.57;17.53;;;5.60;99.90;;;;;;5006387;28;20560;-64
2023/03/03 12:46:42;;;;;;;28.97;13.33;;;5.60;99.90;;;;;;5048021;28;20207;-65
2023/03/03 12:49:08;;;;;;;27.30;13.43;;;5.60;99.90;;;;;;5052393;28;20171;-65
2023/03/03 12:51:42;;;;;;;26.97;13.27;;;5.70;99.90;;;;;;5052049;28;20185;-64
2023/03/03 12:54:13;;;;;;;28.47;15.97;;;5.70;99.90;;;;;;5052268;28;20289;-65
2023/03/03 12:56:57;;;;;;;30.83;15.00;;;5.80;99.90;;;;;;5052301;28;20552;-64
2023/03/03 13:00:00;;;;;;;22.60;14.37;;;5.90;99.90;;;;;;5052006;28;20262;-65
2023/03/03 13:02:47;;;;;;;29.20;14.70;;;6.00;99.90;;;;;;5051397;28;20286;-64